Página principal
METAR-TAF:

METAR-TAF

Aeroportos :

Aeroporto Internacional Franjo Tuđman

Zagreb, Croácia

latitude: 45-44N, longitude: 016-04E, altura: 106 m

Observação actual do tempo

O boletim foi feito há 25 minutos, às 14:00 UTC
Vento 7 kt de este com rajadas de 18 kt, variando entre norte e su-sudeste
Temperatura 33°C
Humidade 34%
Pressão 1015 hPa
Visibilidade 10 km ou mais
sem nuvens abaixo de 1500 metros e sem cumulonimbus

METAR: LDZA 201400Z 08007G18KT 350V160 CAVOK 33/15 Q1015 NOSIG

Hora: 16:25 (14:25 UTC)

Previsão

O boletim foi feito há 3 horas e 0 minutos, às 11:25 UTC
Previsão válida de 20 às 12 UTC a 21 às 12 UTC
Vento 6 kt de nordeste
Visibilidade 10 km ou mais
Nuvens dispersasa uma altura de 4500 ft

TAF: LDZA 201125Z 2012/2112 05006KT 9999 SCT045 TX32/2012Z TN17/2103Z

Observações e previsões do tempo de mais de 4000 aeroportos (mensagens METAR e TAF).

As estações disponíveis são os pontos amarelos e vermelhos sobre o mapa.

Mova o rato sobre o mapa para ver o nome da estação.

Depois clique no ponto para visualizar as observações e previsões meteorológicas.

Para alterar o mapa : clique nos botões verdes com uma cruz preta para aumentar o zoom; no botão verde com uma pitada de zoom; ou nas setas verdes para mapas adjacentes.


METAR-TAF: